Time;durP1;ratioP1;P1;durP2;ratioP2;P2;SDS_P1;SDS_P2;PMS_P1;PMS_P2;Temp;Humidity;BMP_temperature;BMP_pressure;BME280_temperature;BME280_humidity;BME280_pressure;Samples;Min_cycle;Max_cycle;Signal;HPM_P1;HPM_P2
2023/06/07 00:02:13;;;;;;;13.43;4.93;;;9.90;99.90;;;;;;5059569;28;20143;-74
2023/06/07 00:04:39;;;;;;;11.18;4.40;;;9.80;99.90;;;;;;5052179;28;20045;-74
2023/06/07 00:07:06;;;;;;;12.13;4.35;;;9.70;99.90;;;;;;5059662;28;20071;-74
2023/06/07 00:09:31;;;;;;;11.90;4.57;;;9.70;99.90;;;;;;5063631;28;20052;-74
2023/06/07 00:11:57;;;;;;;12.30;4.18;;;9.80;99.90;;;;;;5062546;28;20037;-74
2023/06/07 00:14:24;;;;;;;14.32;4.70;;;9.70;99.90;;;;;;5059134;28;20506;-76
2023/06/07 00:16:54;;;;;;;14.43;4.60;;;9.70;99.90;;;;;;5055464;28;20064;-75
2023/06/07 00:19:21;;;;;;;10.65;4.75;;;9.70;99.90;;;;;;5055825;28;20048;-75
2023/06/07 00:21:48;;;;;;;13.65;4.43;;;9.60;99.90;;;;;;5063468;28;20118;-74
2023/06/07 00:24:15;;;;;;;15.32;4.90;;;9.70;99.90;;;;;;5057310;28;20048;-74
2023/06/07 00:26:41;;;;;;;11.80;4.60;;;10.00;99.90;;;;;;5062151;28;20045;-75
2023/06/07 00:29:07;;;;;;;12.57;5.00;;;9.50;99.90;;;;;;5062614;28;20051;-75
2023/06/07 00:31:32;;;;;;;16.67;5.22;;;9.70;99.90;;;;;;5054297;28;20102;-74
2023/06/07 00:33:58;;;;;;;13.57;4.80;;;9.60;99.90;;;;;;5063619;28;20024;-76
2023/06/07 00:36:25;;;;;;;12.65;4.65;;;9.50;99.90;;;;;;5062500;28;20040;-75
2023/06/07 00:38:50;;;;;;;13.57;4.90;;;10.10;99.90;;;;;;5062510;28;20729;-75
2023/06/07 00:41:16;;;;;;;11.02;5.60;;;9.40;99.90;;;;;;5059707;28;20049;-75
2023/06/07 00:43:44;;;;;;;13.95;5.18;;;9.40;99.90;;;;;;5054925;28;20040;-74
2023/06/07 00:46:10;;;;;;;13.98;5.22;;;9.40;99.90;;;;;;5044961;28;20503;-75
2023/06/07 00:48:35;;;;;;;9.00;4.78;;;9.40;99.90;;;;;;5062082;28;20040;-74
2023/06/07 00:51:01;;;;;;;12.45;4.93;;;9.40;99.90;;;;;;5061986;28;20110;-75
2023/06/07 00:53:28;;;;;;;12.90;5.68;;;9.40;99.90;;;;;;5055745;28;20757;-75
2023/06/07 00:55:54;;;;;;;15.55;6.15;;;9.40;99.90;;;;;;5061929;28;20040;-75
2023/06/07 00:58:20;;;;;;;14.60;5.35;;;9.40;99.90;;;;;;5058871;28;20037;-75
2023/06/07 01:00:47;;;;;;;10.45;5.20;;;9.40;99.90;;;;;;5058757;28;20438;-75
2023/06/07 01:03:13;;;;;;;14.82;5.82;;;9.50;99.90;;;;;;5054541;28;20057;-74
2023/06/07 01:05:39;;;;;;;11.45;4.93;;;9.20;99.90;;;;;;5061879;28;20161;-74
2023/06/07 01:08:05;;;;;;;13.27;5.50;;;9.80;99.90;;;;;;5063106;28;20036;-75
2023/06/07 01:10:31;;;;;;;13.13;4.75;;;9.30;99.90;;;;;;5060085;28;20051;-75
2023/06/07 01:12:58;;;;;;;14.25;4.80;;;9.30;99.90;;;;;;5055653;28;20480;-74
2023/06/07 01:15:24;;;;;;;13.73;5.80;;;9.30;99.90;;;;;;5051112;28;20053;-74
2023/06/07 01:17:51;;;;;;;7.85;4.43;;;9.20;99.90;;;;;;5061116;28;20082;-76
2023/06/07 01:20:24;;;;;;;10.18;5.22;;;9.40;99.90;;;;;;5061029;28;20052;-74
2023/06/07 01:22:53;;;;;;;14.52;4.88;;;9.70;99.90;;;;;;5047707;28;20078;-75
2023/06/07 01:25:19;;;;;;;18.20;6.00;;;9.20;99.90;;;;;;5062700;28;20119;-75
2023/06/07 01:27:46;;;;;;;11.90;5.18;;;9.50;99.90;;;;;;5060394;28;20124;-75
2023/06/07 01:30:15;;;;;;;14.13;5.40;;;9.30;99.90;;;;;;5059197;28;20048;-75
2023/06/07 01:32:42;;;;;;;17.05;5.35;;;9.20;99.90;;;;;;5054093;28;20088;-76
2023/06/07 01:35:09;;;;;;;18.10;5.60;;;9.30;99.90;;;;;;5064485;28;20461;-76
2023/06/07 01:37:36;;;;;;;14.27;4.80;;;9.20;99.90;;;;;;5058030;28;20037;-75
2023/06/07 01:40:05;;;;;;;13.38;5.55;;;9.20;99.90;;;;;;5060442;28;20044;-75
2023/06/07 01:42:33;;;;;;;15.05;5.82;;;9.20;99.90;;;;;;5061352;28;20152;-75
2023/06/07 01:44:59;;;;;;;12.52;4.97;;;9.30;99.90;;;;;;5058274;28;20063;-75
2023/06/07 01:47:25;;;;;;;12.15;5.13;;;9.30;99.90;;;;;;5059683;28;20082;-75
2023/06/07 01:49:51;;;;;;;12.95;5.07;;;9.20;99.90;;;;;;5056598;28;20064;-75
2023/06/07 01:52:16;;;;;;;9.77;4.68;;;9.50;99.90;;;;;;5050889;28;20102;-76
2023/06/07 01:54:43;;;;;;;17.42;5.75;;;9.60;99.90;;;;;;5059044;28;20530;-76
2023/06/07 01:57:12;;;;;;;23.23;6.68;;;9.50;99.90;;;;;;5059205;28;20450;-75
2023/06/07 02:00:03;;;;;;;12.75;5.80;;;9.60;99.90;;;;;;5062125;28;20055;-75
2023/06/07 02:02:50;;;;;;;18.85;5.45;;;9.20;99.90;;;;;;5057376;28;20040;-75
2023/06/07 02:05:18;;;;;;;16.48;6.35;;;9.30;99.90;;;;;;5058456;28;20098;-75
2023/06/07 02:07:53;;;;;;;16.88;5.97;;;9.50;99.90;;;;;;5054288;28;20557;-75
2023/06/07 02:10:24;;;;;;;;;;;9.60;99.90;;;;;;5063576;28;20898;-75
2023/06/07 02:12:52;;;;;;;17.10;5.70;;;9.40;99.90;;;;;;5051899;28;19924;-75
2023/06/07 02:15:18;;;;;;;12.73;5.63;;;9.40;99.90;;;;;;5060132;28;20094;-73
2023/06/07 02:17:57;;;;;;;14.38;5.68;;;9.40;99.90;;;;;;5050570;28;20032;-75
2023/06/07 02:20:24;;;;;;;14.95;4.80;;;9.40;99.90;;;;;;5059963;28;20438;-74
2023/06/07 02:22:50;;;;;;;15.73;5.47;;;9.60;99.90;;;;;;5041447;28;20055;-74
2023/06/07 02:25:16;;;;;;;17.77;6.68;;;9.50;99.90;;;;;;5062094;28;20052;-74
2023/06/07 02:27:41;;;;;;;12.25;5.43;;;9.60;99.90;;;;;;5059521;28;20048;-75
2023/06/07 02:30:08;;;;;;;14.93;5.75;;;9.60;99.90;;;;;;5056960;28;20083;-74
2023/06/07 02:32:35;;;;;;;11.88;5.15;;;9.60;99.90;;;;;;5055234;28;20040;-73
2023/06/07 02:35:01;;;;;;;17.63;5.60;;;9.60;99.90;;;;;;5052563;28;20061;-74
2023/06/07 02:37:28;;;;;;;9.55;4.70;;;9.70;99.90;;;;;;5053159;28;20462;-75
2023/06/07 02:39:54;;;;;;;12.52;5.18;;;10.00;99.90;;;;;;5059135;28;20045;-74
2023/06/07 02:42:19;;;;;;;15.88;5.95;;;9.80;99.90;;;;;;5061493;28;20052;-76
2023/06/07 02:44:45;;;;;;;10.23;4.90;;;9.80;99.90;;;;;;5056704;28;20552;-74
2023/06/07 02:47:10;;;;;;;15.77;5.05;;;9.90;99.90;;;;;;5058250;28;20079;-73
2023/06/07 02:49:36;;;;;;;18.10;5.97;;;9.90;99.90;;;;;;5056754;28;20472;-75
2023/06/07 02:52:02;;;;;;;16.67;5.70;;;9.90;99.90;;;;;;5057705;28;20041;-74
2023/06/07 02:54:27;;;;;;;12.23;5.53;;;9.90;99.90;;;;;;5050695;28;20076;-74
2023/06/07 02:56:53;;;;;;;20.77;5.57;;;10.00;99.90;;;;;;5036314;28;20045;-76
2023/06/07 02:59:19;;;;;;;13.18;4.97;;;10.70;99.90;;;;;;5059154;28;20055;-75
2023/06/07 03:01:46;;;;;;;22.77;6.53;;;10.10;99.90;;;;;;5055330;28;20044;-75
2023/06/07 03:04:11;;;;;;;14.88;5.03;;;10.10;99.90;;;;;;5056131;28;20084;-75
2023/06/07 03:06:40;;;;;;;15.82;4.50;;;10.20;99.90;;;;;;5041992;28;20073;-74
2023/06/07 03:09:06;;;;;;;14.90;4.70;;;10.20;99.90;;;;;;5052933;28;20052;-74
2023/06/07 03:11:32;;;;;;;14.02;4.95;;;10.20;99.90;;;;;;5053905;28;20048;-74
2023/06/07 03:13:58;;;;;;;15.95;4.50;;;10.30;99.90;;;;;;5061215;28;20446;-75
2023/06/07 03:16:23;;;;;;;17.08;4.55;;;10.30;99.90;;;;;;5039989;28;20050;-74
2023/06/07 03:18:49;;;;;;;13.07;4.95;;;10.30;99.90;;;;;;5059691;28;20106;-75
2023/06/07 03:21:15;;;;;;;24.08;5.10;;;10.40;99.90;;;;;;5053317;28;20072;-74
2023/06/07 03:23:41;;;;;;;16.75;4.80;;;10.40;99.90;;;;;;5058449;28;20109;-74
2023/06/07 03:26:08;;;;;;;17.08;4.70;;;10.40;99.90;;;;;;5056721;28;20050;-75
2023/06/07 03:28:34;;;;;;;18.50;4.68;;;10.50;99.90;;;;;;5057231;28;20049;-75
2023/06/07 03:31:00;;;;;;;20.52;5.15;;;10.50;99.90;;;;;;5059433;28;20048;-75
2023/06/07 03:33:25;;;;;;;17.23;4.65;;;10.60;99.90;;;;;;5061096;28;20048;-76
2023/06/07 03:35:51;;;;;;;13.35;4.20;;;10.70;99.90;;;;;;5061870;28;20048;-73
2023/06/07 03:38:17;;;;;;;18.48;5.45;;;10.70;99.90;;;;;;5056550;28;20076;-76
2023/06/07 03:40:43;;;;;;;26.48;5.40;;;10.70;99.90;;;;;;5043888;28;20525;-77
2023/06/07 03:43:08;;;;;;;19.10;5.05;;;11.00;99.90;;;;;;5063456;28;20041;-77
2023/06/07 03:45:34;;;;;;;19.40;4.80;;;10.80;99.90;;;;;;5063429;28;20048;-77
2023/06/07 03:47:59;;;;;;;13.90;4.13;;;11.10;99.90;;;;;;5042655;28;20048;-78
2023/06/07 03:50:25;;;;;;;17.52;4.40;;;11.10;99.90;;;;;;5060195;28;20033;-75
2023/06/07 03:52:51;;;;;;;14.93;4.13;;;10.90;99.90;;;;;;5059947;28;20581;-77
2023/06/07 03:55:19;;;;;;;17.83;5.10;;;10.90;99.90;;;;;;5062911;28;20045;-75
2023/06/07 03:57:47;;;;;;;15.73;4.80;;;10.90;99.90;;;;;;5055762;28;20049;-75
2023/06/07 04:00:15;;;;;;;17.88;4.88;;;11.00;99.90;;;;;;5066498;28;20385;-76
2023/06/07 04:02:41;;;;;;;17.27;4.80;;;11.00;99.90;;;;;;5055833;28;20065;-76
2023/06/07 04:05:07;;;;;;;18.40;5.28;;;11.10;99.90;;;;;;5061457;28;20041;-78
2023/06/07 04:07:32;;;;;;;18.63;4.20;;;11.10;99.90;;;;;;5059704;28;20044;-79
2023/06/07 04:09:58;;;;;;;17.13;4.32;;;11.20;99.90;;;;;;5057163;28;20052;-77
2023/06/07 04:12:24;;;;;;;22.35;5.60;;;11.20;99.90;;;;;;5048296;28;20053;-76
2023/06/07 04:14:50;;;;;;;19.88;4.35;;;11.30;99.90;;;;;;5064112;28;20048;-77
2023/06/07 04:17:15;;;;;;;12.77;3.95;;;11.50;99.90;;;;;;5062579;28;20052;-76
2023/06/07 04:19:41;;;;;;;15.02;4.28;;;11.40;99.90;;;;;;5053847;28;20395;-77
2023/06/07 04:22:06;;;;;;;14.65;4.00;;;11.40;99.90;;;;;;5063556;28;20086;-77
2023/06/07 04:24:32;;;;;;;19.05;4.93;;;11.60;99.90;;;;;;5062739;28;20088;-77
2023/06/07 04:26:58;;;;;;;13.80;5.28;;;11.50;99.90;;;;;;5060702;28;20122;-78
2023/06/07 04:29:27;;;;;;;15.73;4.10;;;11.50;99.90;;;;;;5054589;28;20037;-79
2023/06/07 04:31:56;;;;;;;19.88;4.68;;;11.60;99.90;;;;;;5063872;28;20477;-79
2023/06/07 04:34:23;;;;;;;16.25;4.05;;;11.60;99.90;;;;;;5060655;28;20044;-78
2023/06/07 04:36:49;;;;;;;17.33;4.68;;;11.80;99.90;;;;;;5061440;28;20084;-78
2023/06/07 04:39:16;;;;;;;11.52;3.97;;;11.80;99.90;;;;;;5062491;28;20059;-76
2023/06/07 04:41:42;;;;;;;14.98;3.95;;;11.70;99.90;;;;;;5058736;28;20049;-76
2023/06/07 04:44:08;;;;;;;13.88;4.00;;;11.80;99.90;;;;;;5051676;28;20054;-78
2023/06/07 04:46:34;;;;;;;16.90;4.00;;;11.80;99.90;;;;;;5061677;28;20040;-78
2023/06/07 04:49:00;;;;;;;15.95;4.30;;;11.80;99.90;;;;;;5062127;28;20071;-78
2023/06/07 04:51:29;;;;;;;19.98;4.07;;;11.90;99.90;;;;;;5050183;28;20041;-78
2023/06/07 04:53:58;;;;;;;11.95;3.92;;;11.90;99.90;;;;;;5061418;28;20054;-80
2023/06/07 04:56:26;;;;;;;16.48;4.03;;;12.00;99.90;;;;;;5059965;28;20071;-78
2023/06/07 04:58:52;;;;;;;18.73;4.20;;;12.00;99.90;;;;;;5058110;28;20207;-78
2023/06/07 05:01:18;;;;;;;16.15;4.00;;;12.10;99.90;;;;;;5059161;28;20124;-78
2023/06/07 05:03:43;;;;;;;14.75;3.30;;;12.10;99.90;;;;;;5063193;28;20128;-76
2023/06/07 05:06:09;;;;;;;12.35;3.15;;;12.10;99.90;;;;;;5044448;28;20060;-76
2023/06/07 05:08:35;;;;;;;15.93;3.13;;;12.10;99.90;;;;;;5058489;28;20562;-76
2023/06/07 05:11:01;;;;;;;16.85;3.42;;;12.10;99.90;;;;;;5053368;28;20055;-76
2023/06/07 05:13:27;;;;;;;17.13;4.30;;;12.20;99.90;;;;;;5040452;28;20057;-76
2023/06/07 05:15:53;;;;;;;15.15;2.85;;;12.30;99.90;;;;;;5061416;28;20084;-76
2023/06/07 05:18:19;;;;;;;12.50;2.83;;;12.30;99.90;;;;;;5061513;28;20047;-75
2023/06/07 05:20:46;;;;;;;15.05;3.28;;;12.40;99.90;;;;;;5056725;28;20123;-77
2023/06/07 05:23:17;;;;;;;15.90;3.53;;;12.50;99.90;;;;;;5055155;28;20131;-77
2023/06/07 05:25:46;;;;;;;15.45;4.25;;;12.50;99.90;;;;;;5060184;28;20457;-77
2023/06/07 05:28:12;;;;;;;18.08;3.85;;;12.50;99.90;;;;;;5059655;28;20461;-77
2023/06/07 05:30:38;;;;;;;18.35;3.80;;;12.60;99.90;;;;;;5059427;28;20094;-77
2023/06/07 05:33:05;;;;;;;17.80;3.92;;;12.60;99.90;;;;;;5053210;28;20132;-78
2023/06/07 05:35:31;;;;;;;14.10;3.65;;;12.60;99.90;;;;;;5054543;28;20057;-77
2023/06/07 05:37:56;;;;;;;11.63;2.92;;;12.70;99.90;;;;;;5054186;28;20044;-75
2023/06/07 05:40:22;;;;;;;15.82;3.60;;;12.70;99.90;;;;;;5060878;28;20055;-76
2023/06/07 05:42:50;;;;;;;16.90;4.15;;;12.80;99.90;;;;;;5052629;28;20048;-74
2023/06/07 05:45:16;;;;;;;17.30;3.92;;;12.80;99.90;;;;;;5055098;28;20044;-74
2023/06/07 05:47:43;;;;;;;13.43;3.40;;;12.80;99.90;;;;;;5040843;28;20194;-77
2023/06/07 05:50:10;;;;;;;10.52;3.30;;;12.90;99.90;;;;;;5060532;28;20068;-78
2023/06/07 05:52:40;;;;;;;9.27;3.20;;;12.90;99.90;;;;;;5049066;28;20090;-77
2023/06/07 05:55:07;;;;;;;15.07;3.47;;;13.00;99.90;;;;;;5061922;28;20679;-77
2023/06/07 05:57:32;;;;;;;17.70;3.53;;;13.00;99.90;;;;;;5059087;28;20041;-75
2023/06/07 05:59:58;;;;;;;16.02;3.35;;;13.10;99.90;;;;;;5059065;28;20044;-78
2023/06/07 06:02:24;;;;;;;16.80;3.85;;;13.10;99.90;;;;;;5049924;28;20040;-77
2023/06/07 06:04:53;;;;;;;12.68;3.80;;;13.20;99.90;;;;;;5051636;28;20098;-77
2023/06/07 06:07:19;;;;;;;10.18;3.40;;;13.20;99.90;;;;;;5055383;28;20052;-77
2023/06/07 06:09:45;;;;;;;15.43;3.42;;;13.20;99.90;;;;;;5054132;28;20171;-77
2023/06/07 06:12:11;;;;;;;15.15;3.97;;;13.30;99.90;;;;;;5054239;28;20143;-77
2023/06/07 06:14:37;;;;;;;12.18;3.63;;;13.40;99.90;;;;;;5049185;28;20052;-78
2023/06/07 06:17:04;;;;;;;9.30;3.33;;;13.50;99.90;;;;;;5055843;28;20048;-77
2023/06/07 06:19:30;;;;;;;12.60;2.65;;;13.50;99.90;;;;;;5064120;28;20044;-78
2023/06/07 06:21:55;;;;;;;20.27;3.05;;;13.60;99.90;;;;;;5057060;28;20048;-79
2023/06/07 06:24:21;;;;;;;18.95;3.33;;;13.60;99.90;;;;;;5052329;28;20044;-78
2023/06/07 06:26:46;;;;;;;15.13;3.75;;;13.60;99.90;;;;;;5050220;28;20039;-76
2023/06/07 06:29:12;;;;;;;13.77;3.13;;;13.80;99.90;;;;;;5060234;28;20403;-80
2023/06/07 06:31:39;;;;;;;13.63;3.15;;;13.80;99.90;;;;;;5059161;28;20056;-78
2023/06/07 06:34:07;;;;;;;10.60;3.55;;;13.90;99.90;;;;;;5058241;28;20045;-76
2023/06/07 06:36:33;;;;;;;16.00;3.70;;;14.00;99.90;;;;;;5054714;28;20048;-76
2023/06/07 06:38:59;;;;;;;12.30;3.00;;;14.10;99.90;;;;;;5063005;28;20043;-77
2023/06/07 06:41:25;;;;;;;12.68;3.17;;;14.20;99.90;;;;;;5056851;28;20044;-76
2023/06/07 06:43:51;;;;;;;15.60;3.47;;;14.30;99.90;;;;;;5041616;28;20049;-79
2023/06/07 06:46:17;;;;;;;20.40;3.78;;;14.40;99.90;;;;;;5059840;28;20399;-77
2023/06/07 06:48:42;;;;;;;17.70;3.85;;;14.40;99.90;;;;;;5059941;28;20041;-76
2023/06/07 06:51:08;;;;;;;9.68;3.53;;;14.50;99.90;;;;;;5040759;28;20040;-77
2023/06/07 06:53:34;;;;;;;11.50;3.28;;;14.50;99.90;;;;;;5039197;28;20494;-77
2023/06/07 06:56:01;;;;;;;14.43;3.40;;;14.50;99.90;;;;;;5056920;28;20048;-77
2023/06/07 06:58:26;;;;;;;18.67;3.78;;;14.70;99.90;;;;;;5060126;28;20063;-79
2023/06/07 07:00:52;;;;;;;12.30;3.65;;;14.70;99.90;;;;;;5055048;28;20041;-77
2023/06/07 07:03:18;;;;;;;11.95;3.40;;;14.90;99.90;;;;;;5059025;28;20127;-77
2023/06/07 07:05:43;;;;;;;11.75;3.03;;;14.90;99.90;;;;;;5060025;28;20052;-78
2023/06/07 07:08:09;;;;;;;8.40;2.95;;;14.90;99.90;;;;;;5052192;28;20132;-77
2023/06/07 07:10:35;;;;;;;12.25;4.15;;;15.00;99.90;;;;;;5057681;28;20041;-78
2023/06/07 07:13:00;;;;;;;12.70;3.53;;;15.10;99.90;;;;;;5063209;28;20102;-79
2023/06/07 07:15:27;;;;;;;12.68;3.65;;;15.10;99.90;;;;;;5062492;28;20049;-77
2023/06/07 07:17:53;;;;;;;16.73;3.92;;;15.30;99.90;;;;;;5058454;28;20053;-75
2023/06/07 07:20:19;;;;;;;15.23;3.45;;;15.30;99.90;;;;;;5064493;28;20132;-77
2023/06/07 07:22:46;;;;;;;13.77;2.97;;;15.60;99.90;;;;;;5066251;28;20075;-76
2023/06/07 07:25:12;;;;;;;10.35;3.10;;;15.90;99.90;;;;;;5067564;28;20053;-77
2023/06/07 07:27:38;;;;;;;9.45;3.15;;;16.10;99.90;;;;;;5062497;28;20111;-77
2023/06/07 07:30:05;;;;;;;15.23;3.35;;;16.30;99.90;;;;;;5063036;28;20044;-75
2023/06/07 07:32:32;;;;;;;16.70;3.83;;;16.40;99.90;;;;;;5062989;28;20067;-75
2023/06/07 07:34:58;;;;;;;8.85;3.10;;;16.50;99.90;;;;;;5049297;28;20041;-77
2023/06/07 07:37:25;;;;;;;11.98;3.20;;;16.80;99.90;;;;;;5055496;28;20049;-77
2023/06/07 07:39:51;;;;;;;13.45;3.75;;;17.10;99.90;;;;;;5064473;28;20515;-77
2023/06/07 07:42:17;;;;;;;12.50;3.20;;;17.30;99.90;;;;;;5065776;28;20082;-77
2023/06/07 07:44:42;;;;;;;13.15;3.13;;;17.50;99.90;;;;;;5065610;28;20480;-77
2023/06/07 07:47:08;;;;;;;13.48;2.80;;;17.50;99.90;;;;;;5062661;28;20047;-77
2023/06/07 07:49:34;;;;;;;11.23;3.45;;;17.40;99.90;;;;;;5059874;28;20045;-77
2023/06/07 07:52:00;;;;;;;27.80;5.07;;;17.60;99.90;;;;;;5065855;28;20029;-77
2023/06/07 07:54:26;;;;;;;17.17;3.83;;;18.10;99.90;;;;;;5062695;28;20051;-76
2023/06/07 07:56:51;;;;;;;10.80;2.38;;;18.30;99.90;;;;;;5060497;28;20045;-77
2023/06/07 07:59:17;;;;;;;14.48;2.85;;;18.50;99.90;;;;;;5067235;28;20079;-77
2023/06/07 08:01:45;;;;;;;12.43;3.15;;;18.70;99.90;;;;;;5068132;28;20119;-76
2023/06/07 08:04:11;;;;;;;12.82;3.03;;;19.00;99.90;;;;;;5067193;28;20036;-76
2023/06/07 08:06:38;;;;;;;15.43;3.38;;;19.00;99.90;;;;;;5064360;28;20118;-75
2023/06/07 08:09:05;;;;;;;13.35;3.35;;;19.30;99.90;;;;;;5060792;28;20058;-76
2023/06/07 08:11:31;;;;;;;14.07;3.22;;;19.40;99.90;;;;;;5067383;28;20424;-76
2023/06/07 08:13:57;;;;;;;19.95;3.35;;;19.70;99.90;;;;;;5067239;28;20048;-76
2023/06/07 08:16:22;;;;;;;8.60;2.65;;;19.80;99.90;;;;;;5056465;28;20045;-76
2023/06/07 08:18:55;;;;;;;12.70;2.78;;;20.10;99.90;;;;;;5067569;28;20055;-75
2023/06/07 08:21:22;;;;;;;9.48;3.40;;;20.00;99.90;;;;;;5062577;28;20052;-76
2023/06/07 08:23:48;;;;;;;11.25;2.63;;;20.00;99.90;;;;;;5061233;28;20048;-76
2023/06/07 08:26:15;;;;;;;13.43;3.42;;;20.10;99.90;;;;;;5060367;28;20051;-75
2023/06/07 08:28:42;;;;;;;10.45;2.78;;;20.10;99.90;;;;;;5061539;28;20052;-76
2023/06/07 08:31:10;;;;;;;11.95;3.30;;;20.20;99.90;;;;;;5063099;28;20055;-76
2023/06/07 08:33:36;;;;;;;12.88;3.13;;;20.20;99.90;;;;;;5063795;28;20044;-76
2023/06/07 08:36:02;;;;;;;8.70;2.78;;;20.50;99.90;;;;;;5060131;28;20103;-77
2023/06/07 08:38:27;;;;;;;16.50;3.25;;;20.50;99.90;;;;;;5054858;28;20571;-77
2023/06/07 08:40:55;;;;;;;7.35;2.70;;;20.60;99.90;;;;;;5054810;28;20052;-76
2023/06/07 08:43:21;;;;;;;16.65;3.33;;;20.70;99.90;;;;;;5061383;28;20056;-77
2023/06/07 08:45:49;;;;;;;13.52;3.40;;;20.70;99.90;;;;;;5061763;28;20041;-76
2023/06/07 08:48:16;;;;;;;13.02;3.08;;;20.80;99.90;;;;;;5062666;28;20128;-76
2023/06/07 08:50:44;;;;;;;15.05;3.40;;;20.70;99.90;;;;;;5059806;28;20107;-76
2023/06/07 08:53:13;;;;;;;12.48;2.75;;;20.90;99.90;;;;;;5063489;28;20063;-75
2023/06/07 08:55:39;;;;;;;12.05;2.63;;;21.00;99.90;;;;;;5064132;28;20036;-77
2023/06/07 08:58:08;;;;;;;15.95;3.40;;;21.10;99.90;;;;;;5061217;28;20106;-76
2023/06/07 09:00:35;;;;;;;10.38;2.88;;;21.30;99.90;;;;;;5050511;28;20077;-76
2023/06/07 09:03:00;;;;;;;13.02;3.20;;;21.40;99.90;;;;;;5056399;28;20529;-76
2023/06/07 09:05:26;;;;;;;15.20;3.60;;;21.60;99.90;;;;;;5061520;28;20127;-76
2023/06/07 09:07:53;;;;;;;15.65;3.45;;;21.70;99.90;;;;;;5062398;28;20094;-77
2023/06/07 09:10:19;;;;;;;14.45;2.92;;;21.70;99.90;;;;;;5045259;28;20120;-76
2023/06/07 09:12:48;;;;;;;12.10;2.88;;;21.80;99.90;;;;;;5061374;28;20490;-76
2023/06/07 09:15:19;;;;;;;13.23;3.22;;;22.00;99.90;;;;;;5055923;28;20499;-76
2023/06/07 09:17:56;;;;;;;10.93;3.08;;;22.20;99.90;;;;;;5061728;28;20056;-76
2023/06/07 09:20:26;;;;;;;9.02;2.72;;;22.20;99.90;;;;;;5056777;28;20935;-77
2023/06/07 09:23:03;;;;;;;14.00;3.30;;;22.10;99.90;;;;;;5063355;28;20372;-77
2023/06/07 09:25:30;;;;;;;14.75;3.80;;;21.90;99.90;;;;;;5049340;28;20045;-76
2023/06/07 09:27:57;;;;;;;13.10;3.58;;;22.20;99.90;;;;;;5061997;28;20063;-75
2023/06/07 09:30:23;;;;;;;10.50;3.40;;;22.10;99.90;;;;;;5061913;28;20128;-76
2023/06/07 09:32:49;;;;;;;11.57;2.83;;;22.10;99.90;;;;;;5040452;28;20049;-76
2023/06/07 09:35:18;;;;;;;9.82;2.47;;;22.20;99.90;;;;;;5061986;28;20403;-76
2023/06/07 09:37:52;;;;;;;10.32;3.47;;;22.10;99.90;;;;;;5061565;28;20113;-76
2023/06/07 09:40:18;;;;;;;12.95;3.63;;;22.40;99.90;;;;;;5059887;28;20053;-76
2023/06/07 09:42:44;;;;;;;15.70;4.18;;;22.30;99.90;;;;;;5062491;28;20045;-76
2023/06/07 09:45:14;;;;;;;9.35;3.08;;;22.50;99.90;;;;;;5058470;28;20045;-76
2023/06/07 09:47:42;;;;;;;12.38;3.65;;;22.40;99.90;;;;;;5059650;28;20044;-77
2023/06/07 09:50:14;;;;;;;12.07;3.63;;;22.50;99.90;;;;;;5062467;28;20066;-74
2023/06/07 09:52:40;;;;;;;10.30;2.88;;;22.50;99.90;;;;;;5050034;28;20694;-76
2023/06/07 09:55:08;;;;;;;12.25;3.15;;;22.70;99.90;;;;;;5060670;28;20076;-76
2023/06/07 09:57:36;;;;;;;13.82;3.78;;;22.60;99.90;;;;;;5051500;28;20418;-76
2023/06/07 10:02:37;;;;;;;10.43;2.65;;;22.70;99.90;;;;;;5054331;28;20049;-77
2023/06/07 10:05:03;;;;;;;8.98;2.70;;;22.50;99.90;;;;;;5061847;28;20490;-76
2023/06/07 10:07:50;;;;;;;10.35;3.47;;;22.70;99.90;;;;;;5061107;28;20548;-75
2023/06/07 10:10:19;;;;;;;10.45;3.03;;;22.60;99.90;;;;;;5053749;28;20057;-76
2023/06/07 10:12:46;;;;;;;16.33;3.42;;;22.80;99.90;;;;;;5060656;28;20052;-76
2023/06/07 10:15:25;;;;;;;21.15;5.50;;;22.80;99.90;;;;;;5060416;28;20052;-76
2023/06/07 10:18:04;;;;;;;13.77;3.72;;;22.90;99.90;;;;;;5058915;28;20033;-76
2023/06/07 10:20:35;;;;;;;12.68;4.30;;;23.20;99.90;;;;;;5058374;28;20071;-77
2023/06/07 10:23:05;;;;;;;12.50;4.28;;;23.20;99.90;;;;;;5055910;28;20051;-76
2023/06/07 10:25:59;;;;;;;16.15;4.53;;;23.10;99.90;;;;;;5060967;28;20048;-77
2023/06/07 10:28:32;;;;;;;10.85;3.80;;;23.10;99.80;;;;;;4978350;28;20078;-76
2023/06/07 10:31:05;;;;;;;12.73;3.40;;;23.00;99.90;;;;;;4983786;28;20054;-73
2023/06/07 10:33:33;;;;;;;10.00;3.85;;;23.10;99.90;;;;;;4999756;28;20061;-75
2023/06/07 10:35:59;;;;;;;13.35;3.88;;;23.10;99.90;;;;;;4979354;28;20047;-77
2023/06/07 10:38:26;;;;;;;18.05;3.72;;;23.10;99.90;;;;;;4996446;28;20153;-76
2023/06/07 10:40:52;;;;;;;13.00;3.60;;;23.00;99.90;;;;;;4982278;28;20046;-76
2023/06/07 10:43:19;;;;;;;12.93;3.70;;;23.20;99.90;;;;;;4995584;28;20065;-75
2023/06/07 10:45:45;;;;;;;11.77;3.25;;;23.10;99.90;;;;;;4980716;28;20062;-74
2023/06/07 10:48:33;;;;;;;14.65;3.90;;;23.10;99.90;;;;;;4978407;28;20049;-76
2023/06/07 10:50:59;;;;;;;12.25;3.60;;;23.10;99.40;;;;;;4981771;28;20871;-76
2023/06/07 10:53:24;;;;;;;12.68;3.28;;;23.30;99.90;;;;;;4996508;28;20133;-76
2023/06/07 10:55:50;;;;;;;10.55;3.17;;;23.30;99.90;;;;;;4980519;28;20042;-78
2023/06/07 10:58:27;;;;;;;13.73;3.58;;;23.20;99.80;;;;;;4992859;28;20053;-77
2023/06/07 11:00:54;;;;;;;14.65;3.22;;;23.20;99.10;;;;;;4983221;28;20049;-77
2023/06/07 11:03:22;;;;;;;16.88;4.43;;;23.40;99.30;;;;;;4996655;28;20057;-76
2023/06/07 11:06:02;;;;;;;15.85;3.80;;;23.20;99.20;;;;;;5034111;28;20400;-75
2023/06/07 11:08:36;;;;;;;13.30;4.25;;;23.30;99.40;;;;;;5057793;28;20037;-78
2023/06/07 11:11:04;;;;;;;13.90;3.97;;;23.40;99.60;;;;;;5031974;28;20500;-78
2023/06/07 11:13:38;;;;;;;13.98;4.10;;;23.50;99.90;;;;;;5064696;28;20405;-76
2023/06/07 11:16:22;;;;;;;15.45;4.85;;;23.60;99.60;;;;;;5036483;28;20110;-78
2023/06/07 11:19:08;;;;;;;12.23;3.50;;;23.60;98.70;;;;;;5050332;28;20116;-75
2023/06/07 11:21:55;;;;;;;14.25;4.50;;;23.60;99.40;;;;;;5061179;28;20318;-75
2023/06/07 11:24:21;;;;;;;18.38;5.07;;;23.70;99.40;;;;;;5057393;28;20079;-76
2023/06/07 11:26:50;;;;;;;11.35;3.85;;;23.70;99.60;;;;;;5058296;28;20115;-76
2023/06/07 11:29:16;;;;;;;11.38;4.22;;;23.90;99.70;;;;;;5056966;28;20156;-78
2023/06/07 11:31:46;;;;;;;12.30;4.38;;;23.90;99.60;;;;;;5058320;28;20087;-73
2023/06/07 11:34:14;;;;;;;10.90;4.40;;;23.80;99.50;;;;;;5060486;28;20517;-72
2023/06/07 11:36:41;;;;;;;15.13;4.38;;;23.90;99.40;;;;;;5059069;28;20083;-77
2023/06/07 11:39:08;;;;;;;14.88;4.00;;;23.90;99.30;;;;;;5056871;28;20056;-76
2023/06/07 11:41:35;;;;;;;13.02;4.20;;;23.90;99.50;;;;;;5056454;28;20411;-76
2023/06/07 11:44:01;;;;;;;13.95;3.80;;;23.90;99.30;;;;;;5053017;28;20048;-75
2023/06/07 11:46:34;;;;;;;11.57;3.65;;;23.90;99.10;;;;;;5053131;28;20392;-75
2023/06/07 11:49:03;;;;;;;11.80;3.80;;;23.90;98.80;;;;;;5053919;28;20110;-78
2023/06/07 11:51:29;;;;;;;14.55;4.10;;;24.10;99.10;;;;;;5060976;28;20047;-77
2023/06/07 11:54:00;;;;;;;10.73;3.10;;;24.00;98.70;;;;;;5060576;28;20115;-75
2023/06/07 11:56:27;;;;;;;11.18;3.60;;;24.00;98.40;;;;;;5061605;28;20040;-77
2023/06/07 11:59:00;;;;;;;11.52;3.88;;;24.00;98.60;;;;;;5059184;28;20110;-76
2023/06/07 12:01:27;;;;;;;11.88;3.35;;;24.00;99.10;;;;;;5048511;28;20049;-75
2023/06/07 12:03:53;;;;;;;12.57;3.50;;;24.10;98.60;;;;;;5063355;28;20045;-76
2023/06/07 12:06:18;;;;;;;10.63;3.13;;;24.10;98.70;;;;;;5060870;28;20407;-77
2023/06/07 12:08:49;;;;;;;8.90;3.15;;;24.10;98.90;;;;;;5061542;28;20072;-76
2023/06/07 12:11:15;;;;;;;9.20;3.13;;;24.30;98.50;;;;;;5061489;28;20057;-75
2023/06/07 12:13:41;;;;;;;10.70;3.47;;;24.20;98.80;;;;;;5060723;28;20064;-76
2023/06/07 12:16:07;;;;;;;11.20;3.47;;;24.10;98.60;;;;;;5056621;28;20056;-76
2023/06/07 12:18:38;;;;;;;16.17;3.10;;;24.30;98.20;;;;;;5063414;28;20082;-74
2023/06/07 12:21:18;;;;;;;12.13;3.63;;;24.30;98.30;;;;;;5063042;28;20052;-78
2023/06/07 12:23:52;;;;;;;30.08;4.90;;;24.40;98.00;;;;;;5053156;28;20480;-80
2023/06/07 12:26:22;;;;;;;;;;;24.50;97.70;;;;;;5059187;28;20173;-74
2023/06/07 12:28:49;;;;;;;9.45;3.38;;;24.40;97.30;;;;;;5068657;28;19971;-77
2023/06/07 12:31:24;;;;;;;15.75;3.35;;;24.30;97.80;;;;;;5060079;28;20046;-75
2023/06/07 12:34:05;;;;;;;12.10;3.60;;;24.40;98.20;;;;;;5064279;28;20068;-79
2023/06/07 12:36:35;;;;;;;10.18;3.75;;;24.50;97.80;;;;;;5064035;28;20121;-77
2023/06/07 12:39:25;;;;;;;15.57;4.03;;;24.60;98.00;;;;;;5060052;28;20052;-77
2023/06/07 12:41:50;;;;;;;13.88;3.67;;;24.50;97.70;;;;;;5063375;28;20086;-75
2023/06/07 12:44:16;;;;;;;11.70;3.30;;;24.60;98.10;;;;;;5062918;28;20461;-76
2023/06/07 12:46:42;;;;;;;13.52;3.30;;;24.70;98.00;;;;;;5045720;28;20419;-77